Time;durP1;ratioP1;P1;durP2;ratioP2;P2;SDS_P1;SDS_P2;PMS_P1;PMS_P2;Temp;Humidity;BMP_temperature;BMP_pressure;BME280_temperature;BME280_humidity;BME280_pressure;Samples;Min_cycle;Max_cycle;Signal;HPM_P1;HPM_P2
2023/03/14 00:01:56;;;;;;;0.00;0.00;;;;;;;11.92;81.45;94000.41;4384442;32;20200;-52
2023/03/14 00:04:21;;;;;;;0.00;0.00;;;;;;;12.01;81.14;93985.13;4392362;32;20215;-54
2023/03/14 00:06:46;;;;;;;0.10;0.10;;;;;;;12.00;81.26;93983.59;4390943;32;20197;-48
2023/03/14 00:09:13;;;;;;;0.00;0.00;;;;;;;11.89;81.78;93969.19;4393278;32;20181;-49
2023/03/14 00:11:38;;;;;;;0.07;0.07;;;;;;;11.93;81.63;93954.13;4379430;32;20192;-50
2023/03/14 00:14:03;;;;;;;0.20;0.20;;;;;;;11.79;82.33;93943.09;4393404;32;20231;-51
2023/03/14 00:16:28;;;;;;;0.00;0.00;;;;;;;11.82;82.26;93947.72;4391717;32;20192;-52
2023/03/14 00:18:54;;;;;;;0.00;0.00;;;;;;;11.84;82.28;93967.56;4379420;32;20207;-53
2023/03/14 00:21:19;;;;;;;0.00;0.00;;;;;;;11.76;82.63;93980.91;4371099;32;20248;-53
2023/03/14 00:23:45;;;;;;;0.00;0.00;;;;;;;11.88;82.08;93983.59;4387653;32;20199;-53
2023/03/14 00:26:15;;;;;;;0.00;0.00;;;;;;;11.84;82.13;93978.19;4376466;32;20440;-51
2023/03/14 00:28:42;;;;;;;0.23;0.23;;;;;;;11.84;82.40;93974.75;4382632;32;20260;-53
2023/03/14 00:31:10;;;;;;;0.00;0.00;;;;;;;11.80;82.59;93965.91;4382486;32;20189;-51
2023/03/14 00:33:36;;;;;;;0.30;0.20;;;;;;;11.82;82.60;93963.69;4387864;32;20200;-52
2023/03/14 00:36:06;;;;;;;0.10;0.10;;;;;;;11.83;82.61;93958.03;4388985;32;20196;-52
2023/03/14 00:38:32;;;;;;;0.30;0.30;;;;;;;11.87;82.34;93974.84;4393171;32;20184;-50
2023/03/14 00:40:58;;;;;;;0.00;0.00;;;;;;;11.77;82.79;93971.87;4387123;32;20184;-49
2023/03/14 00:43:24;;;;;;;0.10;0.10;;;;;;;11.85;82.24;93963.00;4374411;32;20231;-47
2023/03/14 00:45:50;;;;;;;0.00;0.00;;;;;;;11.85;82.12;93968.31;4381509;32;20184;-46
2023/03/14 00:48:15;;;;;;;0.10;0.10;;;;;;;11.75;82.53;93963.44;4389313;32;20189;-45
2023/03/14 00:50:41;;;;;;;0.20;0.20;;;;;;;11.76;82.76;93968.44;4392327;32;20299;-49
2023/03/14 00:53:06;;;;;;;0.00;0.00;;;;;;;11.62;83.68;93970.63;4379368;32;20197;-46
2023/03/14 00:55:31;;;;;;;0.00;0.00;;;;;;;11.70;83.36;93975.81;4393155;32;20188;-48
2023/03/14 00:57:57;;;;;;;0.03;0.00;;;;;;;11.72;83.52;93967.53;4376895;32;20265;-48
2023/03/14 01:00:23;;;;;;;0.20;0.20;;;;;;;11.68;83.83;93969.28;4375418;32;20199;-49
2023/03/14 01:02:48;;;;;;;0.00;0.00;;;;;;;11.52;84.84;93971.06;4380382;32;20224;-46
2023/03/14 01:05:14;;;;;;;0.40;0.30;;;;;;;11.47;85.23;93982.69;4393300;32;20184;-47
2023/03/14 01:07:41;;;;;;;0.00;0.00;;;;;;;11.54;85.16;93995.41;4377966;32;20188;-47
2023/03/14 01:10:07;;;;;;;0.00;0.00;;;;;;;11.53;86.12;93999.19;4378545;32;20222;-47
2023/03/14 01:12:32;;;;;;;0.10;0.10;;;;;;;11.47;87.04;93995.94;4388806;32;20233;-46
2023/03/14 01:14:57;;;;;;;0.40;0.20;;;;;;;11.42;88.09;94019.31;4390371;32;20207;-45
2023/03/14 01:17:23;;;;;;;0.00;0.00;;;;;;;11.47;88.74;94016.44;4385194;32;20273;-48
2023/03/14 01:19:48;;;;;;;0.23;0.17;;;;;;;11.38;90.17;94023.72;4394065;32;20199;-47
2023/03/14 01:22:13;;;;;;;0.00;0.00;;;;;;;11.49;89.94;94027.50;4372317;32;20244;-48
2023/03/14 01:24:39;;;;;;;0.00;0.00;;;;;;;11.54;89.68;94022.75;4386669;32;20184;-46
2023/03/14 01:27:04;;;;;;;0.10;0.10;;;;;;;11.59;90.09;94013.78;4391840;32;20201;-46
2023/03/14 01:29:29;;;;;;;0.00;0.00;;;;;;;11.62;90.36;94019.22;4392514;32;20184;-48
2023/03/14 01:31:55;;;;;;;0.00;0.00;;;;;;;11.31;92.54;94018.97;4372010;32;20204;-46
2023/03/14 01:34:20;;;;;;;0.27;0.27;;;;;;;11.28;93.34;94022.25;4389606;32;20225;-46
2023/03/14 01:36:45;;;;;;;0.07;0.07;;;;;;;11.14;93.94;94024.47;4391959;32;20181;-48
2023/03/14 01:39:12;;;;;;;0.10;0.10;;;;;;;11.19;93.85;94016.28;4387084;32;20260;-45
2023/03/14 01:41:39;;;;;;;0.10;0.10;;;;;;;11.01;94.98;94024.41;4375437;32;20193;-47
2023/03/14 01:44:05;;;;;;;0.17;0.17;;;;;;;11.02;95.31;94022.53;4373647;32;20196;-48
2023/03/14 01:46:42;;;;;;;0.00;0.00;;;;;;;10.89;96.39;94019.06;4374839;32;20180;-47
2023/03/14 01:49:23;;;;;;;3.30;0.60;;;;;;;10.75;96.85;94018.59;4386032;32;20195;-48
2023/03/14 01:52:10;;;;;;;0.30;0.27;;;;;;;10.75;98.18;94023.13;4375641;32;20207;-48
2023/03/14 01:54:39;;;;;;;0.40;0.37;;;;;;;10.84;98.08;94037.84;4368595;32;20205;-45
2023/03/14 01:57:15;;;;;;;0.00;0.00;;;;;;;10.84;98.46;94037.84;4377530;32;20239;-48
2023/03/14 01:59:47;;;;;;;0.00;0.00;;;;;;;10.94;98.16;94034.78;4376518;32;20188;-51
2023/03/14 02:02:14;;;;;;;0.30;0.27;;;;;;;11.03;98.02;94035.47;4378398;32;20189;-46
2023/03/14 02:04:40;;;;;;;0.00;0.00;;;;;;;10.83;98.42;94036.28;4375283;32;20192;-49
2023/03/14 02:07:14;;;;;;;0.10;0.10;;;;;;;10.87;98.82;94041.72;4378073;32;20256;-48
2023/03/14 02:09:41;;;;;;;0.10;0.10;;;;;;;10.67;98.47;94045.94;4372017;32;20180;-47
2023/03/14 02:12:09;;;;;;;0.07;0.07;;;;;;;10.70;99.01;94037.34;4390954;32;20202;-48
2023/03/14 02:14:36;;;;;;;0.10;0.10;;;;;;;10.68;98.44;94026.28;4372201;32;20223;-47
2023/03/14 02:17:04;;;;;;;0.00;0.00;;;;;;;10.45;98.53;94031.16;4372529;32;20196;-46
2023/03/14 02:20:08;;;;;;;0.10;0.10;;;;;;;10.46;97.29;94024.75;4377019;32;20195;-45
2023/03/14 02:22:36;;;;;;;0.00;0.00;;;;;;;10.35;97.75;94025.47;4381338;32;20301;-50
2023/03/14 02:25:16;;;;;;;0.00;0.00;;;;;;;10.30;97.59;94024.56;4377999;32;20184;-47
2023/03/14 02:27:42;;;;;;;0.00;0.00;;;;;;;10.29;98.12;94011.63;4382089;32;20256;-50
2023/03/14 02:30:14;;;;;;;0.10;0.00;;;;;;;10.29;98.84;93996.50;4374823;32;20244;-44
2023/03/14 02:32:43;;;;;;;0.00;0.00;;;;;;;10.07;99.17;93988.84;4384872;32;20242;-48
2023/03/14 02:35:12;;;;;;;0.10;0.10;;;;;;;10.05;99.16;93982.31;4390005;32;20292;-48
2023/03/14 02:37:51;;;;;;;0.00;0.00;;;;;;;10.05;98.72;93964.53;4371225;32;20245;-46
2023/03/14 02:40:17;;;;;;;2.47;0.50;;;;;;;9.98;98.74;93948.38;4390378;32;20184;-51
2023/03/14 02:42:42;;;;;;;0.00;0.00;;;;;;;9.93;99.81;93938.00;4390941;32;20314;-48
2023/03/14 02:45:07;;;;;;;0.10;0.10;;;;;;;10.00;99.97;93925.00;4389415;32;20176;-50
2023/03/14 02:47:33;;;;;;;0.00;0.00;;;;;;;10.03;99.49;93913.75;4377895;32;20200;-48
2023/03/14 02:50:02;;;;;;;0.00;0.00;;;;;;;10.05;99.45;93900.19;4391576;32;20207;-48
2023/03/14 02:52:28;;;;;;;0.67;0.23;;;;;;;10.08;99.42;93883.63;4373741;32;20248;-49
2023/03/14 02:54:53;;;;;;;0.00;0.00;;;;;;;10.13;99.17;93881.56;4374596;32;20231;-51
2023/03/14 02:57:19;;;;;;;0.07;0.07;;;;;;;10.26;98.46;93874.47;4374352;32;20187;-48
2023/03/14 02:59:44;;;;;;;0.13;0.13;;;;;;;10.14;98.39;93877.03;4386725;32;20191;-51
2023/03/14 03:02:09;;;;;;;0.20;0.20;;;;;;;10.17;98.28;93871.88;4386996;32;20212;-48
2023/03/14 03:04:34;;;;;;;0.00;0.00;;;;;;;10.22;98.03;93862.94;4383799;32;20188;-46
2023/03/14 03:07:00;;;;;;;0.00;0.00;;;;;;;10.04;98.21;93872.91;4386199;32;20184;-48
2023/03/14 03:09:25;;;;;;;0.00;0.00;;;;;;;10.07;97.54;93861.66;4356720;32;20188;-50
2023/03/14 03:11:50;;;;;;;0.10;0.10;;;;;;;10.25;96.94;93857.00;4386868;32;20184;-49
2023/03/14 03:14:16;;;;;;;0.00;0.00;;;;;;;10.22;96.05;93858.44;4384375;32;20237;-50
2023/03/14 03:16:41;;;;;;;0.20;0.20;;;;;;;10.15;96.22;93866.13;4390128;32;20337;-46
2023/03/14 03:19:06;;;;;;;0.00;0.00;;;;;;;10.15;95.78;93874.06;4385397;32;20237;-46
2023/03/14 03:21:31;;;;;;;0.20;0.20;;;;;;;10.17;95.87;93871.09;4377158;32;20199;-46
2023/03/14 03:23:57;;;;;;;0.00;0.00;;;;;;;10.07;96.01;93874.91;4390747;32;20184;-49
2023/03/14 03:26:22;;;;;;;0.00;0.00;;;;;;;10.16;95.75;93870.31;4377146;32;20285;-46
2023/03/14 03:28:50;;;;;;;0.00;0.00;;;;;;;10.20;95.42;93868.56;4376021;32;20198;-46
2023/03/14 03:31:15;;;;;;;0.00;0.00;;;;;;;10.13;95.22;93870.19;4390256;32;20192;-49
2023/03/14 03:33:41;;;;;;;0.10;0.10;;;;;;;10.06;95.52;93864.63;4379869;32;20263;-48
2023/03/14 03:36:07;;;;;;;0.00;0.00;;;;;;;9.97;95.13;93860.22;4378776;32;20180;-48
2023/03/14 03:38:33;;;;;;;0.00;0.00;;;;;;;9.98;94.94;93863.59;4384529;32;20211;-46
2023/03/14 03:40:58;;;;;;;0.00;0.00;;;;;;;10.01;95.00;93868.25;4377675;32;20214;-47
2023/03/14 03:43:23;;;;;;;0.53;0.10;;;;;;;9.90;95.58;93875.84;4394332;32;20224;-46
2023/03/14 03:45:49;;;;;;;0.00;0.00;;;;;;;9.91;95.33;93863.38;4394227;32;20188;-50
2023/03/14 03:48:14;;;;;;;0.00;0.00;;;;;;;10.05;94.63;93855.13;4389010;32;20198;-49
2023/03/14 03:50:46;;;;;;;0.00;0.00;;;;;;;9.92;94.48;93864.91;4388490;32;20188;-48
2023/03/14 03:53:12;;;;;;;0.00;0.00;;;;;;;9.93;94.31;93866.47;4379158;32;20297;-47
2023/03/14 03:55:40;;;;;;;1.30;0.20;;;;;;;9.97;93.34;93867.38;4379395;32;20176;-50
2023/03/14 03:58:06;;;;;;;1.07;0.17;;;;;;;9.82;93.74;93862.66;4385847;32;20201;-48
2023/03/14 04:00:32;;;;;;;0.00;0.00;;;;;;;9.91;92.88;93858.06;4379859;32;20189;-46
2023/03/14 04:02:59;;;;;;;0.00;0.00;;;;;;;9.96;92.50;93857.87;4384031;32;20188;-48
2023/03/14 04:05:24;;;;;;;0.00;0.00;;;;;;;9.71;92.57;93850.91;4393687;32;20216;-47
2023/03/14 04:07:49;;;;;;;0.00;0.00;;;;;;;9.74;92.69;93852.91;4395474;32;20217;-46
2023/03/14 04:10:15;;;;;;;1.30;0.50;;;;;;;9.74;92.18;93850.28;4390512;32;20197;-49
2023/03/14 04:12:40;;;;;;;0.00;0.00;;;;;;;9.84;92.10;93848.00;4381676;32;20192;-50
2023/03/14 04:15:07;;;;;;;0.00;0.00;;;;;;;9.67;91.78;93847.34;4393141;32;20199;-47
2023/03/14 04:17:33;;;;;;;0.00;0.00;;;;;;;9.67;91.74;93852.66;4377914;32;20202;-50
2023/03/14 04:19:58;;;;;;;0.00;0.00;;;;;;;9.61;92.30;93854.72;4393389;32;20232;-48
2023/03/14 04:22:23;;;;;;;0.00;0.00;;;;;;;9.51;92.13;93850.59;4379618;32;20285;-51
2023/03/14 04:24:49;;;;;;;0.10;0.10;;;;;;;9.48;91.98;93840.66;4374424;32;20184;-49
2023/03/14 04:27:14;;;;;;;0.30;0.10;;;;;;;9.50;91.82;93838.44;4392394;32;20202;-49
2023/03/14 04:29:40;;;;;;;0.00;0.00;;;;;;;9.39;92.29;93834.63;4388225;32;20188;-50
2023/03/14 04:32:05;;;;;;;0.17;0.17;;;;;;;9.34;92.27;93829.53;4383251;32;20188;-50
2023/03/14 04:34:31;;;;;;;0.00;0.00;;;;;;;9.33;92.05;93828.00;4375356;32;20226;-49
2023/03/14 04:36:56;;;;;;;0.00;0.00;;;;;;;9.40;91.83;93822.94;4374040;32;20222;-52
2023/03/14 04:39:21;;;;;;;0.00;0.00;;;;;;;9.49;91.68;93823.66;4379917;32;20259;-50
2023/03/14 04:41:47;;;;;;;0.00;0.00;;;;;;;9.23;92.16;93812.47;4378231;32;20185;-49
2023/03/14 04:44:12;;;;;;;0.00;0.00;;;;;;;9.22;91.46;93795.84;4377112;32;20229;-50
2023/03/14 04:46:37;;;;;;;0.00;0.00;;;;;;;9.23;91.77;93817.78;4391390;32;20188;-49
2023/03/14 04:49:02;;;;;;;0.00;0.00;;;;;;;9.35;91.19;93822.38;4391689;32;20189;-49
2023/03/14 04:51:28;;;;;;;0.00;0.00;;;;;;;9.33;90.90;93814.00;4387235;32;20201;-51
2023/03/14 04:53:54;;;;;;;0.00;0.00;;;;;;;9.20;90.60;93815.78;4375314;32;20225;-48
2023/03/14 04:56:19;;;;;;;0.00;0.00;;;;;;;9.20;90.82;93802.53;4394436;32;20210;-49
2023/03/14 04:58:45;;;;;;;0.00;0.00;;;;;;;9.19;90.31;93801.00;4390592;32;20288;-47
2023/03/14 05:01:10;;;;;;;0.00;0.00;;;;;;;9.25;90.54;93799.72;4391416;32;20207;-47
2023/03/14 05:03:37;;;;;;;0.00;0.00;;;;;;;9.17;90.63;93792.59;4385719;32;20207;-51
2023/03/14 05:06:04;;;;;;;0.00;0.00;;;;;;;9.15;90.59;93790.25;4372711;32;20279;-49
2023/03/14 05:08:29;;;;;;;0.00;0.00;;;;;;;9.23;90.55;93786.81;4378798;32;20316;-48
2023/03/14 05:10:56;;;;;;;0.00;0.00;;;;;;;9.24;90.14;93792.88;4378208;32;20303;-47
2023/03/14 05:13:22;;;;;;;0.10;0.10;;;;;;;9.33;89.26;93793.59;4380425;32;20192;-54
2023/03/14 05:15:48;;;;;;;0.10;0.10;;;;;;;9.26;89.54;93783.50;4392383;32;20284;-49
2023/03/14 05:18:13;;;;;;;0.20;0.10;;;;;;;9.18;90.02;93776.41;4372689;32;20212;-50
2023/03/14 05:20:38;;;;;;;0.00;0.00;;;;;;;9.22;89.75;93784.47;4392492;32;20212;-50
2023/03/14 05:23:04;;;;;;;0.00;0.00;;;;;;;9.38;89.96;93782.03;4385485;32;20224;-50
2023/03/14 05:25:29;;;;;;;0.00;0.00;;;;;;;9.25;89.89;93781.19;4387435;32;20222;-50
2023/03/14 05:27:55;;;;;;;0.00;0.00;;;;;;;9.19;90.56;93779.81;4389694;32;20244;-49
2023/03/14 05:30:21;;;;;;;0.00;0.00;;;;;;;9.31;90.35;93785.19;4380338;32;20192;-53
2023/03/14 05:32:47;;;;;;;0.00;0.00;;;;;;;9.31;90.43;93793.12;4373609;32;20181;-53
2023/03/14 05:35:13;;;;;;;0.00;0.00;;;;;;;9.36;90.15;93784.22;4390313;32;20446;-53
2023/03/14 05:37:38;;;;;;;0.00;0.00;;;;;;;9.22;90.66;93777.31;4387882;32;20341;-53
2023/03/14 05:40:06;;;;;;;0.00;0.00;;;;;;;9.25;90.32;93781.19;4384860;32;20192;-49
2023/03/14 05:42:32;;;;;;;0.00;0.00;;;;;;;9.22;89.89;93782.59;4377656;32;20197;-47
2023/03/14 05:44:57;;;;;;;0.00;0.00;;;;;;;9.11;90.58;93778.03;4392202;32;20280;-51
2023/03/14 05:47:22;;;;;;;0.00;0.00;;;;;;;9.30;90.08;93781.00;4389667;32;20413;-55
2023/03/14 05:49:48;;;;;;;0.10;0.10;;;;;;;9.32;89.56;93776.16;4381054;32;20215;-53
2023/03/14 05:52:14;;;;;;;0.00;0.00;;;;;;;9.14;90.00;93780.81;4391969;32;20236;-48
2023/03/14 05:54:39;;;;;;;0.00;0.00;;;;;;;9.12;90.15;93774.28;4389638;32;20225;-52
2023/03/14 05:57:05;;;;;;;0.00;0.00;;;;;;;9.11;90.25;93780.69;4374371;32;20269;-51
2023/03/14 05:59:30;;;;;;;0.03;0.03;;;;;;;9.14;90.03;93777.38;4367766;32;20192;-50
2023/03/14 06:01:55;;;;;;;0.00;0.00;;;;;;;9.31;89.64;93771.97;4391524;32;20204;-49
2023/03/14 06:04:21;;;;;;;0.00;0.00;;;;;;;9.33;89.66;93772.41;4393282;32;20218;-50
2023/03/14 06:06:46;;;;;;;0.00;0.00;;;;;;;9.36;89.96;93768.34;4391029;32;20265;-48
2023/03/14 06:09:11;;;;;;;0.10;0.10;;;;;;;9.23;89.93;93764.84;4391122;32;20325;-51
2023/03/14 06:11:37;;;;;;;0.00;0.00;;;;;;;9.21;90.16;93767.81;4390710;32;20193;-50
2023/03/14 06:14:02;;;;;;;0.10;0.10;;;;;;;9.15;89.83;93765.69;4388554;32;20192;-51
2023/03/14 06:16:27;;;;;;;0.00;0.00;;;;;;;9.23;89.72;93757.69;4374038;32;20256;-52
2023/03/14 06:18:53;;;;;;;0.00;0.00;;;;;;;9.33;89.57;93761.84;4375081;32;20184;-52
2023/03/14 06:21:19;;;;;;;0.00;0.00;;;;;;;9.22;89.57;93756.16;4377386;32;20184;-48
2023/03/14 06:23:44;;;;;;;0.00;0.00;;;;;;;9.48;88.98;93757.81;4356492;32;20211;-49
2023/03/14 06:26:11;;;;;;;0.00;0.00;;;;;;;9.39;89.10;93760.53;4387020;32;20299;-51
2023/03/14 06:28:37;;;;;;;0.17;0.17;;;;;;;9.33;89.20;93759.19;4377371;32;20234;-52
2023/03/14 06:31:03;;;;;;;0.03;0.03;;;;;;;9.39;88.13;93751.81;4376312;32;20285;-50
2023/03/14 06:33:28;;;;;;;0.10;0.10;;;;;;;9.43;87.61;93750.84;4378212;32;20281;-49
2023/03/14 06:35:53;;;;;;;0.00;0.00;;;;;;;9.54;87.35;93736.13;4390908;32;20189;-51
2023/03/14 06:38:19;;;;;;;0.00;0.00;;;;;;;9.63;87.18;93734.16;4379122;32;20177;-49
2023/03/14 06:40:44;;;;;;;0.10;0.10;;;;;;;9.61;86.65;93728.41;4371948;32;20200;-52
2023/03/14 06:43:09;;;;;;;0.00;0.00;;;;;;;9.63;86.65;93723.56;4380580;32;20195;-47
2023/03/14 06:45:35;;;;;;;0.10;0.10;;;;;;;9.79;86.44;93718.41;4390165;32;20271;-49
2023/03/14 06:48:01;;;;;;;0.30;0.30;;;;;;;9.90;86.44;93718.78;4391338;32;20188;-51
2023/03/14 06:50:26;;;;;;;0.10;0.10;;;;;;;9.95;86.44;93721.25;4370304;32;20173;-49
2023/03/14 06:52:51;;;;;;;0.00;0.00;;;;;;;9.95;86.46;93726.53;4391980;32;20243;-51
2023/03/14 06:55:17;;;;;;;0.20;0.20;;;;;;;9.93;86.93;93739.34;4371047;32;20176;-49
2023/03/14 06:57:43;;;;;;;0.10;0.10;;;;;;;9.94;86.99;93735.59;4371661;32;20279;-51
2023/03/14 07:00:10;;;;;;;0.00;0.00;;;;;;;9.99;86.59;93749.38;4387232;32;20192;-50
2023/03/14 07:02:35;;;;;;;0.00;0.00;;;;;;;9.94;86.72;93748.81;4390695;32;20263;-47
2023/03/14 07:05:01;;;;;;;0.83;0.37;;;;;;;9.89;86.94;93754.31;4376617;32;20199;-52
2023/03/14 07:07:27;;;;;;;0.30;0.30;;;;;;;9.82;87.56;93754.06;4381365;32;20195;-50
2023/03/14 07:09:52;;;;;;;2.00;0.33;;;;;;;10.01;86.43;93754.34;4392479;32;20185;-55
2023/03/14 07:12:17;;;;;;;3.20;0.20;;;;;;;9.99;86.40;93754.66;4391400;32;20177;-47
2023/03/14 07:14:43;;;;;;;0.00;0.00;;;;;;;9.97;86.26;93761.41;4370997;32;20200;-51
2023/03/14 07:17:10;;;;;;;0.00;0.00;;;;;;;10.04;86.12;93761.63;4369617;32;20192;-51
2023/03/14 07:19:35;;;;;;;0.00;0.00;;;;;;;10.08;85.40;93754.59;4384513;32;20238;-50
2023/03/14 07:22:00;;;;;;;0.00;0.00;;;;;;;10.04;85.24;93755.56;4376608;32;20177;-49
2023/03/14 07:24:26;;;;;;;0.07;0.07;;;;;;;10.12;85.02;93757.34;4388526;32;20196;-50
2023/03/14 07:26:52;;;;;;;0.00;0.00;;;;;;;10.09;85.27;93758.78;4390027;32;20184;-48
2023/03/14 07:29:17;;;;;;;0.00;0.00;;;;;;;10.00;85.53;93758.09;4377424;32;20192;-50
2023/03/14 07:31:43;;;;;;;0.10;0.10;;;;;;;9.97;85.53;93756.13;4376228;32;20192;-48
2023/03/14 07:34:08;;;;;;;0.00;0.00;;;;;;;10.06;85.48;93754.12;4384415;32;20211;-50
2023/03/14 07:36:33;;;;;;;0.00;0.00;;;;;;;10.08;85.11;93767.84;4375991;32;20208;-52
2023/03/14 07:38:59;;;;;;;0.10;0.10;;;;;;;10.19;84.34;93762.91;4384165;32;20181;-49
2023/03/14 07:41:24;;;;;;;1.07;0.63;;;;;;;10.09;84.62;93766.72;4384584;32;20233;-51
2023/03/14 07:43:49;;;;;;;0.10;0.10;;;;;;;10.00;85.19;93750.16;4377604;32;20193;-47
2023/03/14 07:46:15;;;;;;;0.10;0.10;;;;;;;9.93;84.19;93748.06;4374379;32;20184;-47
2023/03/14 07:48:41;;;;;;;0.00;0.00;;;;;;;10.01;84.14;93751.69;4386493;32;20196;-47
2023/03/14 07:51:08;;;;;;;0.10;0.10;;;;;;;10.00;84.09;93748.28;4382160;32;20213;-51
2023/03/14 07:53:33;;;;;;;0.00;0.00;;;;;;;10.09;83.08;93744.75;4388967;32;20192;-48
2023/03/14 07:55:59;;;;;;;0.00;0.00;;;;;;;10.07;82.16;93739.03;4385366;32;20235;-48
2023/03/14 07:58:24;;;;;;;0.00;0.00;;;;;;;10.08;82.25;93737.91;4376750;32;20185;-53
2023/03/14 08:00:51;;;;;;;0.20;0.20;;;;;;;10.22;82.48;93739.19;4389881;32;20188;-48
2023/03/14 08:03:17;;;;;;;0.00;0.00;;;;;;;10.23;81.40;93730.13;4374751;32;20199;-48
2023/03/14 08:05:43;;;;;;;0.10;0.10;;;;;;;10.28;80.79;93732.56;4373880;32;26770;-46
2023/03/14 08:08:08;;;;;;;0.10;0.10;;;;;;;10.33;80.64;93742.19;4376226;32;20211;-45
2023/03/14 08:10:34;;;;;;;0.00;0.00;;;;;;;10.38;80.78;93741.19;4388818;32;20197;-46
2023/03/14 08:13:00;;;;;;;0.00;0.00;;;;;;;10.46;79.95;93735.00;4376461;32;20184;-47
2023/03/14 08:15:28;;;;;;;6.73;0.53;;;;;;;10.38;80.34;93751.81;4375778;32;20236;-48
2023/03/14 08:17:53;;;;;;;0.00;0.00;;;;;;;10.52;80.27;93741.63;4390375;32;20237;-46
2023/03/14 08:20:20;;;;;;;0.63;0.40;;;;;;;10.58;79.71;93743.75;4393873;32;20184;-49
2023/03/14 08:22:46;;;;;;;0.10;0.10;;;;;;;10.61;78.78;93737.75;4378632;32;20207;-49
2023/03/14 08:25:11;;;;;;;0.00;0.00;;;;;;;10.69;78.98;93744.06;4389837;32;20192;-44
2023/03/14 08:27:40;;;;;;;0.20;0.20;;;;;;;10.82;78.22;93742.16;4391783;32;20192;-47
2023/03/14 08:30:08;;;;;;;0.07;0.07;;;;;;;10.80;78.13;93749.72;4391157;32;20211;-46
2023/03/14 08:32:34;;;;;;;0.00;0.00;;;;;;;10.92;78.12;93745.16;4375372;32;20242;-51
2023/03/14 08:34:59;;;;;;;0.20;0.20;;;;;;;10.85;77.22;93750.22;4379612;32;20238;-51
2023/03/14 08:37:24;;;;;;;0.97;0.47;;;;;;;10.90;77.45;93755.31;4363864;32;20297;-48
2023/03/14 08:39:51;;;;;;;0.20;0.17;;;;;;;10.91;77.26;93756.88;4380964;32;20185;-50
2023/03/14 08:42:17;;;;;;;0.30;0.13;;;;;;;10.83;77.44;93764.94;4378942;32;20184;-50
2023/03/14 08:44:42;;;;;;;0.07;0.07;;;;;;;11.00;76.72;93765.50;4377080;32;20247;-52
2023/03/14 08:47:08;;;;;;;0.10;0.10;;;;;;;11.01;76.55;93767.00;4377596;32;20207;-52
2023/03/14 08:49:33;;;;;;;0.10;0.10;;;;;;;10.91;77.12;93778.09;4392122;32;20176;-51
2023/03/14 08:51:58;;;;;;;0.00;0.00;;;;;;;11.00;75.09;93770.78;4395795;32;20240;-50
2023/03/14 08:54:24;;;;;;;0.77;0.30;;;;;;;10.95;76.33;93762.28;4378903;32;20219;-50
2023/03/14 08:56:49;;;;;;;0.00;0.00;;;;;;;10.99;75.52;93769.25;4378270;32;20199;-52
2023/03/14 08:59:14;;;;;;;0.00;0.00;;;;;;;10.76;75.99;93775.34;4382062;32;20223;-44
2023/03/14 09:01:40;;;;;;;0.00;0.00;;;;;;;13.43;83.92;93775.13;4377337;32;20197;-47
2023/03/14 09:04:06;;;;;;;0.47;0.47;;;;;;;13.96;67.84;93774.28;4390859;32;20239;-43
2023/03/14 09:06:31;;;;;;;0.00;0.00;;;;;;;15.30;67.01;93771.53;4379145;32;20207;-45
2023/03/14 09:08:57;;;;;;;0.00;0.00;;;;;;;15.44;59.38;93771.72;4380738;32;20237;-42
2023/03/14 09:11:22;;;;;;;0.50;0.30;;;;;;;16.13;61.32;93767.63;4380445;32;20259;-45
2023/03/14 09:13:48;;;;;;;0.10;0.10;;;;;;;16.31;60.54;93778.50;4389974;32;20206;-44
2023/03/14 09:16:13;;;;;;;0.27;0.23;;;;;;;16.06;57.45;93785.50;4378628;32;20279;-45
2023/03/14 09:18:39;;;;;;;0.00;0.00;;;;;;;16.44;57.71;93790.50;4392248;32;20189;-45
2023/03/14 09:21:05;;;;;;;0.00;0.00;;;;;;;16.52;57.62;93780.63;4378935;32;20184;-42
2023/03/14 09:23:30;;;;;;;9.67;0.53;;;;;;;16.69;57.15;93784.62;4390039;32;20211;-43
2023/03/14 09:25:57;;;;;;;0.00;0.00;;;;;;;16.72;57.52;93781.22;4375093;32;20231;-43
2023/03/14 09:28:23;;;;;;;0.00;0.00;;;;;;;16.83;57.09;93776.75;4393571;32;20203;-48
2023/03/14 09:30:49;;;;;;;0.00;0.00;;;;;;;15.99;55.48;93782.75;4389728;32;20188;-47
2023/03/14 09:33:15;;;;;;;0.30;0.30;;;;;;;14.87;57.35;93788.84;4386807;32;20190;-50
2023/03/14 09:35:40;;;;;;;0.00;0.00;;;;;;;14.15;60.31;93786.03;4376959;32;20192;-50
2023/03/14 09:38:06;;;;;;;0.00;0.00;;;;;;;13.58;62.69;93775.03;4390270;32;20197;-49
2023/03/14 09:40:35;;;;;;;0.10;0.10;;;;;;;12.81;65.99;93785.50;4378197;32;20270;-46
2023/03/14 09:43:00;;;;;;;0.30;0.30;;;;;;;12.73;67.27;93773.16;4366363;32;20203;-47
2023/03/14 09:45:40;;;;;;;0.00;0.00;;;;;;;12.63;67.97;93776.34;4387935;32;20224;-49
2023/03/14 09:48:06;;;;;;;0.00;0.00;;;;;;;12.45;69.62;93761.84;4389362;32;20219;-46
2023/03/14 09:50:41;;;;;;;0.10;0.10;;;;;;;12.28;70.18;93769.00;4386920;32;20185;-48
2023/03/14 09:53:14;;;;;;;0.00;0.00;;;;;;;12.47;69.83;93768.34;4390092;32;20221;-49
2023/03/14 09:55:42;;;;;;;0.00;0.00;;;;;;;12.22;70.20;93765.09;4388681;32;20185;-52
2023/03/14 09:58:19;;;;;;;0.20;0.20;;;;;;;12.32;69.30;93753.94;4388600;32;20207;-50
2023/03/14 10:00:45;;;;;;;0.17;0.17;;;;;;;12.36;68.92;93760.09;4372597;32;20233;-49
2023/03/14 10:03:13;;;;;;;0.20;0.20;;;;;;;12.27;69.54;93753.41;4377346;32;20184;-51
2023/03/14 10:05:40;;;;;;;0.10;0.10;;;;;;;12.25;69.42;93758.31;4392298;32;20212;-49
2023/03/14 10:08:06;;;;;;;0.40;0.40;;;;;;;12.19;69.79;93754.34;4384156;32;20298;-52
2023/03/14 10:10:32;;;;;;;1.37;0.83;;;;;;;12.10;70.49;93753.72;4371342;32;20196;-48
2023/03/14 10:13:01;;;;;;;0.20;0.20;;;;;;;12.15;70.68;93756.91;4389495;32;20234;-48
2023/03/14 10:15:31;;;;;;;0.10;0.03;;;;;;;12.07;70.78;93754.41;4377954;32;20200;-50
2023/03/14 10:18:00;;;;;;;0.03;0.03;;;;;;;12.08;70.80;93754.06;4378451;32;20228;-50
2023/03/14 10:20:41;;;;;;;0.37;0.37;;;;;;;12.18;70.32;93748.25;4365992;32;20181;-49
2023/03/14 10:23:12;;;;;;;0.33;0.33;;;;;;;11.99;69.47;93743.59;4385973;32;20192;-52
2023/03/14 10:25:44;;;;;;;0.40;0.40;;;;;;;12.00;69.54;93755.00;4370047;32;20241;-50
2023/03/14 10:28:31;;;;;;;0.30;0.27;;;;;;;11.72;69.91;93747.03;4391550;32;20177;-49
2023/03/14 10:30:57;;;;;;;2.93;0.87;;;;;;;11.86;68.64;93736.03;4382992;32;20235;-53
2023/03/14 10:33:28;;;;;;;0.50;0.50;;;;;;;11.86;67.11;93726.16;4386980;32;20188;-50
2023/03/14 10:36:05;;;;;;;0.20;0.20;;;;;;;11.90;67.15;93728.91;4384917;32;20234;-55
2023/03/14 10:38:33;;;;;;;0.30;0.30;;;;;;;11.91;66.59;93728.59;4376913;32;20235;-53
2023/03/14 10:40:59;;;;;;;0.53;0.43;;;;;;;11.87;65.28;93722.41;4389770;32;20216;-52
2023/03/14 10:43:35;;;;;;;0.30;0.30;;;;;;;11.94;65.86;93732.44;4375435;32;20200;-52
2023/03/14 10:46:15;;;;;;;0.20;0.20;;;;;;;12.07;65.97;93725.16;4384991;32;20176;-50
2023/03/14 10:48:41;;;;;;;0.00;0.00;;;;;;;12.30;64.87;93726.91;4387080;32;20192;-52
2023/03/14 10:51:17;;;;;;;0.10;0.10;;;;;;;12.38;64.91;93731.28;4373507;32;20180;-54
2023/03/14 10:54:09;;;;;;;0.30;0.10;;;;;;;12.34;64.45;93727.75;4387272;32;20191;-49
2023/03/14 10:56:36;;;;;;;0.10;0.10;;;;;;;12.37;65.13;93735.06;4368636;32;20196;-47
2023/03/14 10:59:04;;;;;;;1.53;0.10;;;;;;;12.44;64.59;93739.03;4380137;32;20199;-51
2023/03/14 11:01:38;;;;;;;0.00;0.00;;;;;;;12.34;65.75;93737.63;4376882;32;20196;-50
2023/03/14 11:04:18;;;;;;;0.10;0.10;;;;;;;12.44;65.11;93747.78;4374475;32;20202;-50
2023/03/14 11:06:55;;;;;;;0.10;0.10;;;;;;;12.61;64.58;93746.66;4387212;32;20309;-52
2023/03/14 11:09:23;;;;;;;1.90;0.40;;;;;;;12.74;63.43;93742.75;4372300;32;20240;-49
2023/03/14 11:11:49;;;;;;;0.20;0.20;;;;;;;12.76;62.71;93743.19;4383803;32;20189;-49
2023/03/14 11:14:31;;;;;;;2.50;0.30;;;;;;;12.66;62.26;93736.53;4389015;32;20176;-50
2023/03/14 11:17:08;;;;;;;0.03;0.03;;;;;;;12.53;62.32;93737.72;4387517;32;20250;-50
2023/03/14 11:19:54;;;;;;;0.00;0.00;;;;;;;12.40;62.62;93749.56;4387204;32;20221;-53
2023/03/14 11:22:44;;;;;;;2.80;0.47;;;;;;;12.44;63.00;93747.00;4387446;32;20229;-50
2023/03/14 11:25:31;;;;;;;0.20;0.20;;;;;;;12.44;62.00;93739.78;4386500;32;20212;-50
2023/03/14 11:28:09;;;;;;;0.03;0.03;;;;;;;12.55;60.90;93740.81;4386947;32;20244;-51
2023/03/14 11:30:43;;;;;;;1.70;0.30;;;;;;;12.68;60.81;93744.91;4370867;32;20226;-51
2023/03/14 11:33:35;;;;;;;0.20;0.20;;;;;;;12.82;60.98;93733.84;4386530;32;20188;-49
2023/03/14 11:36:07;;;;;;;0.10;0.10;;;;;;;12.86;59.75;93737.34;4385818;32;20204;-47
2023/03/14 11:38:48;;;;;;;0.37;0.10;;;;;;;13.02;59.07;93729.31;4389862;32;20237;-51